Time;durP1;ratioP1;P1;durP2;ratioP2;P2;SDS_P1;SDS_P2;PMS_P1;PMS_P2;Temp;Humidity;BMP_temperature;BMP_pressure;BME280_temperature;BME280_humidity;BME280_pressure;Samples;Min_cycle;Max_cycle;Signal;HPM_P1;HPM_P2
2021/12/10 00:01:13;;;;;;;30.80;17.05;;;5.20;99.90;;;;;;5110504;28;20027;-72
2021/12/10 00:03:43;;;;;;;31.85;18.73;;;5.30;99.90;;;;;;5114335;28;20039;-72
2021/12/10 00:06:16;;;;;;;29.38;16.35;;;5.30;99.90;;;;;;5111081;28;20518;-72
2021/12/10 00:08:47;;;;;;;18.17;10.52;;;5.50;99.90;;;;;;5114833;28;20471;-72
2021/12/10 00:11:34;;;;;;;29.27;16.83;;;5.60;99.90;;;;;;5096134;28;20492;-72
2021/12/10 00:14:00;;;;;;;30.83;16.83;;;5.50;99.90;;;;;;5093443;28;20148;-72
2021/12/10 00:16:27;;;;;;;25.75;15.90;;;5.50;99.90;;;;;;5114106;28;20130;-72
2021/12/10 00:19:05;;;;;;;29.73;16.38;;;5.50;99.90;;;;;;5111178;28;20559;-71
2021/12/10 00:21:31;;;;;;;26.00;16.90;;;5.60;99.90;;;;;;5113350;28;20055;-72
2021/12/10 00:23:57;;;;;;;26.00;15.32;;;5.60;99.90;;;;;;5111098;28;20044;-71
2021/12/10 00:26:23;;;;;;;21.25;10.32;;;5.60;99.90;;;;;;5113204;28;20152;-72
2021/12/10 00:28:50;;;;;;;29.42;17.52;;;5.70;99.90;;;;;;5096039;28;20144;-72
2021/12/10 00:34:08;;;;;;;28.15;16.60;;;5.60;99.90;;;;;;5108160;28;20521;-72
2021/12/10 00:36:36;;;;;;;25.70;15.07;;;5.50;99.90;;;;;;5112252;28;20047;-72
2021/12/10 00:39:08;;;;;;;27.42;17.80;;;5.50;99.90;;;;;;5112148;28;20387;-72
2021/12/10 00:41:35;;;;;;;23.75;14.25;;;5.40;99.90;;;;;;5113767;28;20071;-71
2021/12/10 00:44:01;;;;;;;31.85;15.80;;;5.50;99.90;;;;;;5112683;28;20067;-71
2021/12/10 00:46:26;;;;;;;27.25;15.52;;;5.50;99.90;;;;;;5113808;28;20518;-72
2021/12/10 00:48:52;;;;;;;27.60;14.95;;;5.50;99.90;;;;;;5112088;28;20028;-72
2021/12/10 00:51:18;;;;;;;25.85;13.43;;;5.40;99.90;;;;;;5096641;28;20031;-72
2021/12/10 00:53:44;;;;;;;26.00;15.23;;;5.50;99.90;;;;;;5111157;28;20097;-72
2021/12/10 00:56:11;;;;;;;25.65;14.25;;;5.50;99.90;;;;;;5113533;28;20035;-72
2021/12/10 00:58:38;;;;;;;30.13;15.43;;;5.40;99.90;;;;;;5095343;28;20032;-72
2021/12/10 01:01:07;;;;;;;26.67;15.68;;;5.30;99.90;;;;;;5111628;28;20063;-72
2021/12/10 01:03:39;;;;;;;27.17;14.30;;;5.30;99.90;;;;;;5110893;28;20047;-72
2021/12/10 01:06:08;;;;;;;25.00;13.43;;;5.40;99.90;;;;;;5112927;28;20395;-72
2021/12/10 01:08:38;;;;;;;25.40;15.30;;;5.40;99.90;;;;;;5109037;28;20075;-72
2021/12/10 01:11:08;;;;;;;27.10;14.48;;;5.40;99.90;;;;;;5096383;28;20065;-72
2021/12/10 01:13:37;;;;;;;27.35;15.00;;;5.40;99.90;;;;;;5111615;28;20035;-72
2021/12/10 01:27:01;;;;;;;20.88;11.90;;;5.30;99.90;;;;;;5113007;28;20047;-72
2021/12/10 01:29:34;;;;;;;25.75;13.80;;;5.60;99.90;;;;;;5110931;28;20574;-72
2021/12/10 01:32:02;;;;;;;23.10;13.80;;;5.50;99.90;;;;;;5111734;28;20129;-72
2021/12/10 01:34:28;;;;;;;24.02;11.52;;;5.40;99.90;;;;;;5109783;28;20060;-72
2021/12/10 01:36:55;;;;;;;21.33;10.95;;;5.50;99.90;;;;;;5094559;28;20043;-72
2021/12/10 01:39:25;;;;;;;24.95;12.57;;;5.60;99.90;;;;;;5094870;28;20035;-72
2021/12/10 01:41:56;;;;;;;22.65;14.20;;;5.70;99.90;;;;;;5095648;28;20046;-72
2021/12/10 01:44:30;;;;;;;22.77;13.07;;;5.60;99.90;;;;;;5091862;28;20406;-72
2021/12/10 01:46:59;;;;;;;17.33;10.60;;;5.60;99.90;;;;;;5147181;27;20039;-72
2021/12/10 01:49:26;;;;;;;23.27;14.32;;;5.60;99.90;;;;;;5093662;28;20088;-72
2021/12/10 01:51:52;;;;;;;21.65;11.68;;;5.50;99.90;;;;;;5111412;28;20039;-72
2021/12/10 01:54:27;;;;;;;23.58;13.00;;;5.70;99.90;;;;;;5094311;28;20063;-72
2021/12/10 01:56:57;;;;;;;24.52;13.75;;;5.60;99.90;;;;;;5110847;28;20458;-72
2021/12/10 01:59:25;;;;;;;24.65;12.73;;;5.50;99.90;;;;;;5110559;28;20087;-72
2021/12/10 02:02:00;;;;;;;21.42;8.48;;;5.50;99.90;;;;;;5092187;28;20059;-72
2021/12/10 02:04:29;;;;;;;12.95;8.02;;;5.70;99.90;;;;;;5094948;28;20065;-72
2021/12/10 02:06:56;;;;;;;21.92;13.15;;;5.70;99.90;;;;;;5093569;28;20043;-72
2021/12/10 02:09:22;;;;;;;23.95;13.57;;;5.70;99.90;;;;;;5093131;28;20027;-72
2021/12/10 02:11:48;;;;;;;24.95;14.55;;;5.50;99.90;;;;;;5090874;28;20039;-72
2021/12/10 02:14:15;;;;;;;21.48;13.23;;;5.40;99.90;;;;;;5111687;28;20039;-72
2021/12/10 02:16:41;;;;;;;12.90;7.68;;;5.40;99.90;;;;;;5093496;28;20038;-72
2021/12/10 02:19:08;;;;;;;20.73;11.93;;;5.50;99.90;;;;;;5094038;28;20098;-72
2021/12/10 02:21:34;;;;;;;21.15;12.70;;;5.50;99.90;;;;;;5094728;28;20031;-71
2021/12/10 02:24:02;;;;;;;18.33;10.88;;;5.40;99.90;;;;;;5110229;28;20047;-72
2021/12/10 02:26:31;;;;;;;18.98;12.13;;;5.50;99.90;;;;;;5111589;28;20042;-71
2021/12/10 02:28:58;;;;;;;18.92;10.30;;;5.50;99.90;;;;;;5109963;28;20031;-71
2021/12/10 02:31:25;;;;;;;19.90;11.43;;;5.50;99.90;;;;;;5093653;28;20096;-72
2021/12/10 02:33:50;;;;;;;18.70;11.07;;;5.50;99.90;;;;;;5091250;28;20062;-72
2021/12/10 02:36:16;;;;;;;21.20;12.13;;;5.40;99.90;;;;;;5109836;28;20499;-71
2021/12/10 02:38:46;;;;;;;21.80;12.13;;;5.30;99.90;;;;;;5092143;28;20069;-71
2021/12/10 02:41:14;;;;;;;19.63;11.88;;;5.20;99.90;;;;;;5145362;27;20035;-71
2021/12/10 02:43:40;;;;;;;19.20;11.23;;;5.30;99.90;;;;;;5110453;28;20047;-71
2021/12/10 02:46:06;;;;;;;20.40;12.13;;;5.40;99.90;;;;;;5094385;28;20038;-71
2021/12/10 02:48:32;;;;;;;19.45;11.48;;;5.30;99.90;;;;;;5106895;28;20434;-71
2021/12/10 02:50:59;;;;;;;19.95;11.02;;;5.30;99.90;;;;;;5111084;28;20065;-72
2021/12/10 02:53:30;;;;;;;18.48;9.63;;;5.40;99.90;;;;;;5092229;28;20032;-72
2021/12/10 02:55:59;;;;;;;13.75;7.45;;;5.50;99.90;;;;;;5109098;28;20391;-72
2021/12/10 02:58:27;;;;;;;21.38;11.38;;;5.50;99.90;;;;;;5088892;28;20484;-72
2021/12/10 03:00:52;;;;;;;13.07;7.13;;;5.30;99.90;;;;;;5093338;28;20027;-72
2021/12/10 03:03:18;;;;;;;18.65;10.52;;;5.40;99.90;;;;;;5094058;28;20402;-72
2021/12/10 03:05:44;;;;;;;17.25;8.43;;;5.50;99.90;;;;;;5110595;28;20080;-72
2021/12/10 03:08:10;;;;;;;19.10;10.18;;;5.40;99.90;;;;;;5091751;28;20518;-72
2021/12/10 03:10:37;;;;;;;10.20;6.28;;;5.50;99.90;;;;;;5108409;28;20084;-72
2021/12/10 03:13:04;;;;;;;15.60;10.30;;;5.50;99.90;;;;;;5108409;28;20036;-72
2021/12/10 03:15:30;;;;;;;21.10;11.45;;;5.50;99.90;;;;;;5094157;28;20077;-72
2021/12/10 03:17:58;;;;;;;19.77;11.15;;;5.30;99.90;;;;;;5109696;28;20031;-72
2021/12/10 03:20:29;;;;;;;19.95;10.38;;;5.30;99.90;;;;;;5093043;28;20058;-72
2021/12/10 03:22:55;;;;;;;19.50;10.20;;;5.30;99.90;;;;;;5109789;28;20084;-72
2021/12/10 03:25:21;;;;;;;19.08;9.00;;;5.30;99.90;;;;;;5093898;28;20482;-72
2021/12/10 03:27:47;;;;;;;15.13;8.88;;;5.30;99.90;;;;;;5101859;28;20047;-72
2021/12/10 03:30:18;;;;;;;18.95;10.55;;;5.30;99.90;;;;;;5093517;28;20042;-72
2021/12/10 03:32:45;;;;;;;19.85;11.73;;;5.20;99.90;;;;;;5107066;28;20431;-72
2021/12/10 03:35:17;;;;;;;22.00;12.57;;;5.40;99.90;;;;;;5093527;28;20415;-72
2021/12/10 03:37:45;;;;;;;19.30;10.80;;;5.30;99.90;;;;;;5091384;28;20042;-72
2021/12/10 03:40:15;;;;;;;21.88;11.52;;;5.20;99.90;;;;;;5107847;28;20032;-72
2021/12/10 03:42:42;;;;;;;24.17;12.65;;;5.20;99.90;;;;;;5092790;28;20365;-72
2021/12/10 03:45:09;;;;;;;22.65;11.75;;;5.20;99.90;;;;;;5094034;28;20440;-72
2021/12/10 03:47:35;;;;;;;22.20;12.02;;;5.20;99.90;;;;;;5092162;28;20122;-72
2021/12/10 03:50:02;;;;;;;20.75;12.95;;;5.10;99.90;;;;;;5110356;28;20046;-72
2021/12/10 03:52:28;;;;;;;19.80;13.85;;;5.20;99.90;;;;;;5109323;28;20039;-72
2021/12/10 03:54:54;;;;;;;23.98;13.63;;;5.20;99.90;;;;;;5108665;28;20494;-72
2021/12/10 03:57:20;;;;;;;22.05;14.55;;;5.20;99.90;;;;;;5092524;28;20392;-72
2021/12/10 03:59:46;;;;;;;22.40;14.30;;;5.10;99.90;;;;;;5109209;28;20040;-72
2021/12/10 04:02:12;;;;;;;22.88;15.13;;;5.20;99.90;;;;;;5108257;28;20074;-72
2021/12/10 04:04:41;;;;;;;21.63;16.23;;;5.20;99.90;;;;;;5108621;28;20069;-72
2021/12/10 04:07:12;;;;;;;28.05;16.15;;;5.10;99.90;;;;;;5141320;27;20040;-72
2021/12/10 04:09:38;;;;;;;22.13;14.80;;;5.10;99.90;;;;;;5091478;28;20036;-72
2021/12/10 04:12:07;;;;;;;25.00;16.02;;;5.20;99.90;;;;;;5091971;28;20084;-72
2021/12/10 04:14:33;;;;;;;24.00;16.77;;;5.10;99.90;;;;;;5092520;28;20510;-72
2021/12/10 04:16:59;;;;;;;21.27;14.80;;;5.10;99.90;;;;;;5090322;28;20123;-72
2021/12/10 04:19:27;;;;;;;15.60;9.55;;;5.20;99.90;;;;;;5093430;28;20469;-72
2021/12/10 04:21:56;;;;;;;20.65;14.18;;;5.30;99.90;;;;;;5108209;28;20035;-72
2021/12/10 04:24:24;;;;;;;23.58;14.38;;;5.30;99.90;;;;;;5093254;28;20028;-72
2021/12/10 04:26:51;;;;;;;18.90;11.05;;;5.40;99.90;;;;;;5090373;28;20127;-72
2021/12/10 04:29:20;;;;;;;21.63;14.73;;;5.30;99.90;;;;;;5109652;28;20057;-72
2021/12/10 04:31:47;;;;;;;17.70;12.88;;;5.20;99.90;;;;;;5137701;27;20046;-72
2021/12/10 04:34:13;;;;;;;22.08;13.43;;;5.30;99.90;;;;;;5092558;28;20091;-71
2021/12/10 04:36:40;;;;;;;22.42;14.95;;;5.30;99.90;;;;;;5105609;28;20122;-72
2021/12/10 04:39:06;;;;;;;20.98;13.32;;;5.20;99.90;;;;;;5124452;27;20134;-72
2021/12/10 04:41:32;;;;;;;20.60;13.45;;;5.20;99.90;;;;;;5088503;28;20042;-72
2021/12/10 04:43:58;;;;;;;19.88;13.63;;;5.00;99.90;;;;;;5104252;28;20063;-72
2021/12/10 04:46:24;;;;;;;20.38;13.50;;;5.10;99.90;;;;;;5093608;28;20539;-72
2021/12/10 04:48:52;;;;;;;22.02;13.35;;;5.00;99.90;;;;;;5096379;28;20035;-72
2021/12/10 04:51:20;;;;;;;22.17;13.32;;;4.90;99.90;;;;;;5094666;28;20040;-72
2021/12/10 04:53:47;;;;;;;18.45;12.32;;;5.00;99.90;;;;;;5144080;27;20039;-72
2021/12/10 04:56:13;;;;;;;19.15;13.68;;;4.90;99.90;;;;;;5097273;28;20084;-72
2021/12/10 04:58:39;;;;;;;23.10;13.90;;;4.80;99.90;;;;;;5114866;28;20365;-72
2021/12/10 05:01:05;;;;;;;24.20;14.00;;;4.80;99.90;;;;;;5112754;28;20035;-72
2021/12/10 05:03:31;;;;;;;22.63;13.07;;;4.70;99.90;;;;;;5148631;27;20043;-72
2021/12/10 05:06:02;;;;;;;22.10;13.95;;;4.70;99.90;;;;;;5114295;28;20046;-72
2021/12/10 05:08:28;;;;;;;20.08;12.85;;;4.70;99.90;;;;;;5111116;28;20040;-72
2021/12/10 05:10:53;;;;;;;19.05;12.20;;;4.60;99.90;;;;;;5111058;28;20092;-72
2021/12/10 05:13:20;;;;;;;21.92;12.23;;;4.60;99.90;;;;;;5110006;28;20040;-72
2021/12/10 05:15:53;;;;;;;18.48;12.68;;;4.60;99.90;;;;;;5093401;28;20496;-71
2021/12/10 05:18:19;;;;;;;20.13;13.50;;;4.50;99.90;;;;;;5110108;28;20088;-72
2021/12/10 05:20:48;;;;;;;18.77;12.55;;;4.40;99.90;;;;;;5110527;28;20028;-72
2021/12/10 05:23:15;;;;;;;21.88;12.80;;;4.50;99.90;;;;;;5142284;27;20077;-72
2021/12/10 05:25:42;;;;;;;20.52;12.73;;;4.60;99.90;;;;;;5094524;28;20043;-72
2021/12/10 05:28:08;;;;;;;16.88;11.40;;;4.60;99.90;;;;;;5112122;28;20084;-72
2021/12/10 05:30:34;;;;;;;19.83;13.85;;;4.60;99.90;;;;;;5110695;28;20043;-72
2021/12/10 05:33:02;;;;;;;20.05;12.82;;;4.60;99.90;;;;;;5112858;28;20492;-72
2021/12/10 05:35:31;;;;;;;20.65;13.77;;;4.60;99.90;;;;;;5090251;28;20079;-72
2021/12/10 05:37:57;;;;;;;20.85;12.55;;;4.60;99.90;;;;;;5112056;28;20035;-72
2021/12/10 05:40:23;;;;;;;22.60;14.18;;;4.60;99.90;;;;;;5093119;28;20058;-72
2021/12/10 05:42:49;;;;;;;20.15;14.15;;;4.60;99.90;;;;;;5095592;28;20035;-72
2021/12/10 05:45:18;;;;;;;15.75;9.35;;;4.60;99.90;;;;;;5105586;28;20063;-72
2021/12/10 05:47:46;;;;;;;20.27;12.90;;;4.60;99.90;;;;;;5090741;28;20035;-72
2021/12/10 05:50:14;;;;;;;18.50;11.93;;;4.60;99.90;;;;;;5093772;28;20035;-72
2021/12/10 05:52:39;;;;;;;18.52;12.13;;;4.60;99.90;;;;;;5107926;28;20031;-72
2021/12/10 05:55:06;;;;;;;19.58;11.85;;;4.50;99.90;;;;;;5110339;28;20040;-72
2021/12/10 05:57:32;;;;;;;18.63;10.10;;;4.50;99.90;;;;;;5094237;28;20077;-72
2021/12/10 05:59:57;;;;;;;19.45;11.95;;;4.40;99.90;;;;;;5108850;28;20070;-72
2021/12/10 06:02:23;;;;;;;18.02;10.35;;;4.40;99.90;;;;;;5112200;28;20042;-72
2021/12/10 06:04:48;;;;;;;15.73;10.90;;;4.30;99.90;;;;;;5090942;28;20036;-72
2021/12/10 06:07:14;;;;;;;17.08;10.68;;;4.50;99.90;;;;;;5094253;28;20035;-72
2021/12/10 06:09:40;;;;;;;11.15;6.05;;;4.50;99.90;;;;;;5147461;27;20089;-72
2021/12/10 06:12:06;;;;;;;15.00;8.80;;;4.50;99.90;;;;;;5111999;28;20045;-72
2021/12/10 06:14:31;;;;;;;15.90;10.60;;;4.40;99.90;;;;;;5110361;27;20039;-72
2021/12/10 06:16:57;;;;;;;14.13;9.75;;;4.50;99.90;;;;;;5111307;28;20361;-72
2021/12/10 06:19:23;;;;;;;16.45;10.90;;;4.40;99.90;;;;;;5140264;27;20123;-72
2021/12/10 06:21:49;;;;;;;15.55;10.05;;;4.50;99.90;;;;;;5124311;27;20071;-72
2021/12/10 06:24:16;;;;;;;17.00;10.77;;;4.50;99.90;;;;;;5094150;28;20086;-72
2021/12/10 06:26:41;;;;;;;15.48;10.35;;;4.40;99.90;;;;;;5109638;28;20052;-72
2021/12/10 06:29:08;;;;;;;17.02;10.43;;;4.40;99.90;;;;;;5106568;28;20046;-72
2021/12/10 06:31:35;;;;;;;13.82;9.43;;;4.40;99.90;;;;;;5094420;28;20451;-72
2021/12/10 06:34:01;;;;;;;14.63;8.65;;;4.30;99.90;;;;;;5111338;28;20483;-72
2021/12/10 06:36:27;;;;;;;16.33;9.85;;;4.20;99.90;;;;;;5091494;28;21128;-72
2021/12/10 06:38:53;;;;;;;17.67;10.57;;;4.30;99.90;;;;;;5111271;28;20089;-72
2021/12/10 06:41:19;;;;;;;16.80;11.27;;;4.20;99.90;;;;;;5108272;27;20032;-72
2021/12/10 06:43:45;;;;;;;16.65;9.88;;;4.10;99.90;;;;;;5107904;28;20035;-72
2021/12/10 06:46:12;;;;;;;17.42;11.32;;;4.10;99.90;;;;;;5108072;28;20058;-72
2021/12/10 06:48:38;;;;;;;16.15;10.15;;;4.00;99.90;;;;;;5107894;28;20062;-72
2021/12/10 06:51:09;;;;;;;15.48;9.57;;;4.00;99.90;;;;;;5111330;28;20480;-72
2021/12/10 06:53:37;;;;;;;14.93;10.20;;;3.90;99.90;;;;;;5094620;28;20027;-72
2021/12/10 06:56:04;;;;;;;14.50;9.07;;;4.00;99.90;;;;;;5110823;28;20698;-72
2021/12/10 06:58:32;;;;;;;17.15;9.35;;;4.10;99.90;;;;;;5111185;28;20084;-72
2021/12/10 07:01:02;;;;;;;13.82;9.80;;;4.10;99.90;;;;;;5093333;28;20085;-72
2021/12/10 07:03:29;;;;;;;13.27;9.00;;;3.90;99.90;;;;;;5093355;28;20040;-72
2021/12/10 07:05:57;;;;;;;14.45;9.65;;;3.80;99.90;;;;;;5093662;28;20035;-72
2021/12/10 07:08:25;;;;;;;15.82;8.70;;;3.80;99.90;;;;;;5093806;28;20047;-72
2021/12/10 07:10:51;;;;;;;14.98;8.98;;;3.70;99.90;;;;;;5091521;28;20075;-72
2021/12/10 07:13:17;;;;;;;15.35;8.70;;;3.70;99.90;;;;;;5107519;28;20089;-72
2021/12/10 07:15:46;;;;;;;12.15;7.50;;;3.60;99.90;;;;;;5091073;28;20035;-72
2021/12/10 07:18:12;;;;;;;13.65;8.25;;;3.80;99.90;;;;;;5108880;28;21468;-71
2021/12/10 07:20:39;;;;;;;13.80;8.45;;;3.70;99.90;;;;;;5110619;28;20437;-72
2021/12/10 07:23:05;;;;;;;14.13;8.88;;;3.80;99.90;;;;;;5109863;28;20070;-72
2021/12/10 07:25:31;;;;;;;13.20;8.25;;;3.70;99.90;;;;;;5109535;28;20558;-72
2021/12/10 07:27:56;;;;;;;15.27;8.15;;;3.70;99.90;;;;;;5092654;28;20032;-72
2021/12/10 07:30:25;;;;;;;12.35;7.65;;;3.60;99.90;;;;;;5089087;28;20036;-72
2021/12/10 07:32:50;;;;;;;13.93;8.30;;;3.60;99.90;;;;;;5090075;28;20028;-72
2021/12/10 07:35:16;;;;;;;12.18;8.13;;;3.50;99.90;;;;;;5109305;28;20058;-72
2021/12/10 07:37:43;;;;;;;14.32;8.52;;;3.50;99.90;;;;;;5100873;28;20044;-72
2021/12/10 07:40:14;;;;;;;13.85;8.43;;;3.50;99.90;;;;;;5104213;28;20059;-72
2021/12/10 07:42:40;;;;;;;12.10;7.65;;;3.50;99.90;;;;;;5092590;28;20046;-72
2021/12/10 07:45:07;;;;;;;15.80;7.70;;;3.50;99.90;;;;;;5089052;28;20474;-72
2021/12/10 07:47:36;;;;;;;13.68;7.95;;;3.60;99.90;;;;;;5109722;28;20403;-72
2021/12/10 07:50:04;;;;;;;12.13;8.15;;;3.50;99.90;;;;;;5106398;28;20408;-72
2021/12/10 07:52:34;;;;;;;13.43;7.57;;;3.60;99.90;;;;;;5090914;28;20044;-72
2021/12/10 07:55:02;;;;;;;15.32;7.82;;;3.50;99.90;;;;;;5106267;28;20036;-72
2021/12/10 07:57:29;;;;;;;11.93;7.38;;;3.50;99.90;;;;;;5093168;28;20576;-72
2021/12/10 07:59:55;;;;;;;11.75;7.85;;;3.50;99.90;;;;;;5109188;28;20372;-72
2021/12/10 08:02:21;;;;;;;12.85;7.93;;;3.50;99.90;;;;;;5090844;28;20040;-72
2021/12/10 08:04:46;;;;;;;12.65;7.88;;;3.50;99.90;;;;;;5108661;28;20076;-72
2021/12/10 08:07:13;;;;;;;12.48;8.07;;;3.30;99.90;;;;;;5108697;28;20130;-72
2021/12/10 08:09:40;;;;;;;13.20;8.43;;;3.30;99.90;;;;;;5107290;28;20051;-72
2021/12/10 08:12:06;;;;;;;15.25;8.65;;;3.40;99.90;;;;;;5090799;28;20043;-72
2021/12/10 08:14:31;;;;;;;14.05;8.15;;;3.40;99.90;;;;;;5108458;28;20071;-72
2021/12/10 08:16:57;;;;;;;13.75;8.40;;;3.40;99.90;;;;;;5110407;28;20071;-72
2021/12/10 08:19:23;;;;;;;15.70;8.35;;;3.30;99.90;;;;;;5111639;28;20031;-72
2021/12/10 08:21:48;;;;;;;13.93;7.32;;;3.20;99.90;;;;;;5113128;28;20031;-72
2021/12/10 08:24:14;;;;;;;12.82;8.02;;;3.30;99.90;;;;;;5110410;28;20412;-72
2021/12/10 08:26:40;;;;;;;12.98;8.10;;;3.20;99.90;;;;;;5109962;28;20123;-72
2021/12/10 08:29:07;;;;;;;13.63;7.32;;;3.30;99.90;;;;;;5094041;28;20066;-72
2021/12/10 08:31:33;;;;;;;12.98;7.25;;;3.30;99.90;;;;;;5093900;28;20055;-72
2021/12/10 08:33:59;;;;;;;12.65;7.40;;;3.30;99.90;;;;;;5093738;28;20047;-72
2021/12/10 08:36:25;;;;;;;12.27;7.28;;;3.30;99.90;;;;;;5113349;28;20044;-72
2021/12/10 08:38:52;;;;;;;12.27;6.97;;;3.40;99.90;;;;;;5107610;28;20043;-77
2021/12/10 08:41:21;;;;;;;11.50;6.82;;;3.40;99.90;;;;;;5111036;28;20076;-72
2021/12/10 08:43:47;;;;;;;14.95;6.93;;;3.60;99.90;;;;;;5112356;28;20035;-72
2021/12/10 08:46:14;;;;;;;10.65;6.82;;;3.50;99.90;;;;;;5110548;28;20046;-72
2021/12/10 08:48:42;;;;;;;13.00;6.80;;;3.50;99.90;;;;;;5096432;28;20536;-72
2021/12/10 08:51:13;;;;;;;13.25;7.38;;;3.60;99.90;;;;;;5110396;28;20051;-72
2021/12/10 08:53:39;;;;;;;12.57;6.30;;;3.50;99.90;;;;;;5092070;28;20495;-72
2021/12/10 08:56:06;;;;;;;11.85;6.65;;;3.60;99.90;;;;;;5108098;28;20027;-72
2021/12/10 08:58:33;;;;;;;10.40;6.18;;;3.60;99.90;;;;;;5093957;28;20038;-72
2021/12/10 09:01:19;;;;;;;12.05;6.57;;;3.60;99.90;;;;;;5093629;28;20034;-72
2021/12/10 09:03:52;;;;;;;11.43;6.03;;;3.60;99.90;;;;;;5110874;28;20040;-72
2021/12/10 09:06:21;;;;;;;12.55;6.10;;;3.50;99.90;;;;;;5144733;27;20035;-72
2021/12/10 09:08:47;;;;;;;12.68;7.22;;;3.60;99.90;;;;;;5094460;28;20063;-72
2021/12/10 09:11:14;;;;;;;10.18;5.38;;;3.60;99.90;;;;;;5109993;28;20046;-72
2021/12/10 09:13:41;;;;;;;10.10;6.00;;;3.70;99.90;;;;;;5111152;28;20044;-72
2021/12/10 09:16:13;;;;;;;10.15;6.00;;;3.80;99.90;;;;;;5093943;28;20031;-72
2021/12/10 09:18:40;;;;;;;12.73;6.85;;;3.70;99.90;;;;;;5112963;28;20079;-72
2021/12/10 09:21:08;;;;;;;10.27;6.20;;;3.70;99.90;;;;;;5110905;28;20394;-72
2021/12/10 09:23:34;;;;;;;9.95;5.45;;;3.80;99.90;;;;;;5096539;28;20039;-72
2021/12/10 09:26:04;;;;;;;9.75;5.53;;;3.90;99.90;;;;;;5093265;28;21391;-72
2021/12/10 09:28:30;;;;;;;10.70;6.93;;;3.80;99.90;;;;;;5095998;28;20392;-72
2021/12/10 09:30:59;;;;;;;10.30;5.65;;;3.80;99.90;;;;;;5107610;28;20039;-71
2021/12/10 09:33:25;;;;;;;11.00;6.00;;;3.90;99.90;;;;;;5112504;28;20446;-72
2021/12/10 09:35:51;;;;;;;12.68;6.38;;;3.90;99.90;;;;;;5093001;28;20079;-72
2021/12/10 09:38:19;;;;;;;11.88;5.43;;;4.00;99.90;;;;;;5108844;28;20051;-72
2021/12/10 09:40:48;;;;;;;11.63;6.53;;;4.00;99.90;;;;;;5112344;28;20067;-72
2021/12/10 09:43:15;;;;;;;11.82;5.65;;;4.10;99.90;;;;;;5112114;28;20032;-72
2021/12/10 09:45:42;;;;;;;10.70;5.95;;;4.20;99.90;;;;;;5091951;28;20468;-72
2021/12/10 09:48:11;;;;;;;11.68;6.05;;;4.20;99.90;;;;;;5094036;28;20077;-72
2021/12/10 09:50:43;;;;;;;14.98;5.95;;;4.30;99.90;;;;;;5110086;28;20057;-71
2021/12/10 09:53:09;;;;;;;11.27;5.75;;;4.30;99.90;;;;;;5111727;28;20039;-72
2021/12/10 09:55:36;;;;;;;9.50;5.80;;;4.40;99.90;;;;;;5093407;28;20035;-72
2021/12/10 09:58:03;;;;;;;9.43;5.03;;;4.50;99.90;;;;;;5094075;28;20041;-72
2021/12/10 10:00:35;;;;;;;9.52;5.22;;;4.70;99.90;;;;;;5091079;28;20054;-72
2021/12/10 10:03:04;;;;;;;11.48;5.70;;;4.60;99.90;;;;;;5095474;28;20039;-72
2021/12/10 10:05:32;;;;;;;9.30;5.05;;;4.70;99.90;;;;;;5105456;28;20059;-72
2021/12/10 10:08:03;;;;;;;9.93;5.25;;;4.80;99.90;;;;;;5109410;28;20040;-72
2021/12/10 10:10:30;;;;;;;11.27;5.13;;;4.80;99.90;;;;;;5107414;28;20035;-72
2021/12/10 10:12:57;;;;;;;9.88;5.65;;;5.00;99.90;;;;;;5092789;28;20486;-72
2021/12/10 10:15:28;;;;;;;8.60;5.22;;;5.00;99.90;;;;;;5093634;28;20100;-72
2021/12/10 10:17:55;;;;;;;10.80;5.00;;;5.10;99.90;;;;;;5091466;28;20046;-72
2021/12/10 10:20:22;;;;;;;10.38;5.32;;;5.10;99.90;;;;;;5094212;28;20115;-72
2021/12/10 10:22:48;;;;;;;8.95;5.30;;;5.10;99.90;;;;;;5110823;28;20040;-72
2021/12/10 10:25:16;;;;;;;9.13;5.68;;;5.20;99.90;;;;;;5111602;28;20050;-72
2021/12/10 10:27:43;;;;;;;9.60;5.07;;;5.40;99.90;;;;;;5091197;28;20031;-72
2021/12/10 10:30:30;;;;;;;12.57;4.95;;;5.50;99.90;;;;;;5091376;28;20035;-72
2021/12/10 10:32:59;;;;;;;9.55;4.60;;;5.60;99.90;;;;;;5110211;28;20075;-72
2021/12/10 10:35:34;;;;;;;9.80;4.78;;;5.70;99.90;;;;;;5110207;28;20502;-72
2021/12/10 10:38:01;;;;;;;10.93;4.78;;;5.70;99.90;;;;;;5093886;28;20078;-72
2021/12/10 10:40:34;;;;;;;9.32;4.55;;;5.90;99.90;;;;;;5111222;28;20495;-72
2021/12/10 10:43:00;;;;;;;9.23;4.47;;;5.90;99.90;;;;;;5093631;28;20044;-79
2021/12/10 10:45:32;;;;;;;9.85;4.45;;;6.00;99.90;;;;;;5109727;28;20395;-75
2021/12/10 10:47:58;;;;;;;9.30;4.33;;;6.00;99.90;;;;;;5089151;28;20039;-72
2021/12/10 10:50:30;;;;;;;11.95;5.00;;;6.10;99.90;;;;;;5094080;28;20281;-73
2021/12/10 10:53:02;;;;;;;8.57;4.72;;;5.90;99.90;;;;;;5110187;28;20547;-72
2021/12/10 10:55:41;;;;;;;8.85;4.28;;;5.90;99.90;;;;;;5121351;27;20499;-72
2021/12/10 10:58:14;;;;;;;8.52;4.20;;;6.00;99.90;;;;;;5092035;28;20063;-72
2021/12/10 11:01:03;;;;;;;10.65;4.18;;;6.00;99.90;;;;;;5108856;28;20498;-72
2021/12/10 11:03:38;;;;;;;10.18;3.80;;;6.00;99.90;;;;;;5093693;28;20046;-72
2021/12/10 11:06:15;;;;;;;9.20;4.18;;;6.20;99.90;;;;;;5111189;28;20549;-72
2021/12/10 11:08:47;;;;;;;8.07;4.57;;;6.10;99.90;;;;;;5111123;28;20415;-72
2021/12/10 11:11:26;;;;;;;12.05;5.57;;;6.10;99.90;;;;;;5111201;28;20043;-72
2021/12/10 11:14:04;;;;;;;9.27;4.82;;;6.00;99.90;;;;;;5088151;28;20084;-72
2021/12/10 11:16:33;;;;;;;10.32;4.32;;;6.00;99.90;;;;;;5110677;28;20055;-72
2021/12/10 11:19:13;;;;;;;8.75;3.65;;;6.00;99.90;;;;;;5111322;28;20407;-72
2021/12/10 11:21:58;;;;;;;9.38;4.60;;;6.10;99.90;;;;;;5093204;28;20088;-72
2021/12/10 11:24:34;;;;;;;9.00;4.47;;;5.90;99.90;;;;;;5093770;28;20028;-72
2021/12/10 11:27:03;;;;;;;9.95;4.72;;;5.90;99.90;;;;;;5110907;28;20039;-72
2021/12/10 11:29:36;;;;;;;6.82;2.65;;;5.80;99.90;;;;;;5093980;28;20047;-72
2021/12/10 11:32:05;;;;;;;;;;;6.00;99.90;;;;;;5094338;28;20031;-72
2021/12/10 11:35:08;;;;;;;6.95;3.88;;;5.90;99.90;;;;;;5093277;28;20006;-72
2021/12/10 11:37:57;;;;;;;7.53;4.15;;;5.80;99.90;;;;;;5093540;28;20526;-76
2021/12/10 11:40:27;;;;;;;8.30;3.97;;;5.70;99.90;;;;;;5093649;28;20043;-71
2021/12/10 11:43:01;;;;;;;8.85;3.70;;;5.70;99.90;;;;;;5107451;28;20093;-72
2021/12/10 11:45:51;;;;;;;8.75;4.28;;;5.80;99.90;;;;;;5109533;28;20051;-72
2021/12/10 11:48:25;;;;;;;10.23;4.45;;;5.50;99.90;;;;;;5102264;28;20054;-72
2021/12/10 11:51:25;;;;;;;9.32;3.95;;;5.60;99.90;;;;;;5111392;28;20032;-73
2021/12/10 11:53:59;;;;;;;7.88;3.40;;;5.70;99.90;;;;;;5103120;28;20044;-72
2021/12/10 11:56:44;;;;;;;10.18;4.30;;;5.70;99.90;;;;;;5112062;28;20526;-72
2021/12/10 11:59:14;;;;;;;7.90;3.50;;;5.60;99.90;;;;;;5096931;28;20399;-72
2021/12/10 12:01:51;;;;;;;8.50;3.72;;;5.70;99.90;;;;;;5146863;27;20039;-72
2021/12/10 12:04:19;;;;;;;8.65;3.70;;;5.60;99.90;;;;;;5143393;27;20126;-72
2021/12/10 12:06:44;;;;;;;8.20;3.33;;;5.60;99.90;;;;;;5096341;28;20554;-72
2021/12/10 12:09:37;;;;;;;7.85;3.50;;;5.60;99.90;;;;;;5116047;27;20040;-72
2021/12/10 12:12:15;;;;;;;11.13;3.90;;;5.50;99.90;;;;;;5112758;28;20460;-72
2021/12/10 12:14:49;;;;;;;9.68;3.83;;;5.40;99.90;;;;;;5112362;28;20032;-72
2021/12/10 12:17:42;;;;;;;10.10;3.83;;;5.50;99.90;;;;;;5110161;28;20046;-72
2021/12/10 12:20:28;;;;;;;7.18;3.90;;;5.50;99.90;;;;;;5111764;28;20047;-72
2021/12/10 12:26:01;;;;;;;9.57;3.83;;;5.50;99.90;;;;;;5110986;28;20044;-72
2021/12/10 12:28:28;;;;;;;7.80;3.63;;;5.40;99.90;;;;;;5114255;28;20035;-72
2021/12/10 12:31:04;;;;;;;9.18;3.28;;;5.40;99.90;;;;;;5113720;28;20479;-72
2021/12/10 12:33:49;;;;;;;7.25;3.15;;;5.40;99.90;;;;;;5097896;28;20415;-72
2021/12/10 12:36:15;;;;;;;9.07;4.20;;;5.30;99.90;;;;;;5111048;28;20047;-72
2021/12/10 12:38:47;;;;;;;10.35;3.33;;;5.40;99.90;;;;;;5111177;28;20114;-72
2021/12/10 12:41:15;;;;;;;6.55;2.90;;;5.30;99.90;;;;;;5097778;28;20040;-72
2021/12/10 12:43:43;;;;;;;10.95;3.60;;;5.40;99.90;;;;;;5114264;28;20058;-72
2021/12/10 12:46:10;;;;;;;8.63;3.28;;;5.30;99.90;;;;;;5097328;28;20038;-72
2021/12/10 12:48:51;;;;;;;9.85;3.47;;;5.30;99.90;;;;;;5097743;28;20074;-72
2021/12/10 12:51:20;;;;;;;6.22;2.92;;;5.30;99.90;;;;;;5096403;28;20028;-72
2021/12/10 12:53:47;;;;;;;8.10;3.33;;;5.20;99.90;;;;;;5114677;28;20039;-72
2021/12/10 12:56:14;;;;;;;6.60;2.95;;;5.30;99.90;;;;;;5111150;28;20115;-72
2021/12/10 12:58:48;;;;;;;8.38;3.70;;;5.30;99.90;;;;;;5097421;28;20050;-72
2021/12/10 13:01:38;;;;;;;7.65;3.60;;;5.30;99.90;;;;;;5110251;28;20039;-72
2021/12/10 13:04:06;;;;;;;9.32;3.85;;;5.20;99.90;;;;;;5114314;28;20043;-72
2021/12/10 13:06:45;;;;;;;7.93;3.50;;;5.20;99.90;;;;;;5110062;28;20052;-72
2021/12/10 13:09:22;;;;;;;8.20;3.63;;;5.30;99.90;;;;;;5094443;28;20093;-72
2021/12/10 13:12:02;;;;;;;8.30;3.50;;;5.30;99.90;;;;;;5093447;28;20035;-72